Time;durP1;ratioP1;P1;durP2;ratioP2;P2;SDS_P1;SDS_P2;PMS_P1;PMS_P2;Temp;Humidity;BMP_temperature;BMP_pressure;BME280_temperature;BME280_humidity;BME280_pressure;Samples;Min_cycle;Max_cycle;Signal;HPM_P1;HPM_P2
2023/06/03 00:00:05;;;;;;;1.83;0.90;;;11.30;90.00;;;;;;5073243;28;20634;-84
2023/06/03 00:02:31;;;;;;;1.42;0.75;;;11.20;90.20;;;;;;5071914;28;20244;-83
2023/06/03 00:05:00;;;;;;;2.83;0.90;;;11.20;90.40;;;;;;5074188;28;20232;-83
2023/06/03 00:07:27;;;;;;;1.60;0.90;;;11.20;91.10;;;;;;5074425;28;20180;-82
2023/06/03 00:09:53;;;;;;;3.78;0.70;;;11.00;91.20;;;;;;5074234;28;20165;-83
2023/06/03 00:12:20;;;;;;;4.32;0.98;;;10.80;91.50;;;;;;5514853;22;20237;-91
2023/06/03 00:14:50;;;;;;;2.08;1.05;;;10.70;92.00;;;;;;5095485;28;20192;-92
2023/06/03 00:17:15;;;;;;;1.27;0.90;;;10.50;92.30;;;;;;5098735;28;20541;-92
2023/06/03 00:19:42;;;;;;;2.60;0.77;;;10.40;92.40;;;;;;5100045;28;20157;-92
2023/06/03 00:22:08;;;;;;;1.05;0.73;;;10.30;92.90;;;;;;5098241;28;20802;-92
2023/06/03 00:24:35;;;;;;;1.50;0.93;;;10.20;93.30;;;;;;5099342;28;20228;-92
2023/06/03 00:27:01;;;;;;;1.13;0.80;;;10.10;93.80;;;;;;5098748;28;20171;-91
2023/06/03 00:29:27;;;;;;;1.67;0.70;;;10.00;93.70;;;;;;5099146;28;20188;-91
2023/06/03 00:31:53;;;;;;;2.30;0.90;;;9.90;93.90;;;;;;5098611;28;20168;-90
2023/06/03 00:34:19;;;;;;;6.60;0.95;;;9.80;94.20;;;;;;5098851;28;20663;-90
2023/06/03 00:36:45;;;;;;;1.02;0.63;;;9.60;94.30;;;;;;5098517;28;20168;-92
2023/06/03 00:39:11;;;;;;;1.17;0.70;;;9.60;94.40;;;;;;5099250;28;20236;-91
2023/06/03 00:41:37;;;;;;;1.02;0.75;;;9.50;94.90;;;;;;5098688;28;20192;-91
2023/06/03 00:44:03;;;;;;;1.23;0.88;;;9.50;94.90;;;;;;5098196;28;20227;-92
2023/06/03 00:46:33;;;;;;;2.10;1.00;;;9.50;95.00;;;;;;5098807;28;20172;-93
2023/06/03 00:49:01;;;;;;;1.55;1.08;;;9.50;95.00;;;;;;5098451;28;20169;-92
2023/06/03 00:51:29;;;;;;;1.92;1.00;;;9.50;95.30;;;;;;5096919;28;20181;-91
2023/06/03 00:53:55;;;;;;;2.75;1.38;;;9.40;95.60;;;;;;5097768;28;20249;-91
2023/06/03 00:56:21;;;;;;;4.50;1.40;;;9.30;95.80;;;;;;5097385;28;20700;-90
2023/06/03 00:58:48;;;;;;;1.48;0.95;;;9.20;95.80;;;;;;5097425;28;20180;-90
2023/06/03 01:01:14;;;;;;;1.98;1.27;;;9.30;95.30;;;;;;5097659;28;20183;-90
2023/06/03 01:03:42;;;;;;;2.90;1.17;;;9.30;95.00;;;;;;5095833;28;20217;-92
2023/06/03 01:06:34;;;;;;;6.60;1.40;;;9.30;95.10;;;;;;5098536;28;20172;-90
2023/06/03 01:09:26;;;;;;;3.17;1.15;;;9.20;96.00;;;;;;5097675;28;20207;-91
2023/06/03 01:12:23;;;;;;;1.00;0.75;;;8.90;96.60;;;;;;5094710;28;20225;-92
2023/06/03 01:15:04;;;;;;;6.80;1.30;;;8.80;97.10;;;;;;5070012;28;20277;-91
2023/06/03 01:17:39;;;;;;;2.28;1.30;;;8.70;97.70;;;;;;5080391;28;20177;-91
2023/06/03 01:20:10;;;;;;;3.00;1.30;;;8.60;98.10;;;;;;5079171;28;20191;-92
2023/06/03 01:22:42;;;;;;;2.73;1.30;;;8.50;97.90;;;;;;5080713;28;20664;-91
2023/06/03 01:25:15;;;;;;;2.63;1.40;;;8.50;98.10;;;;;;5081647;28;20177;-91
2023/06/03 01:27:44;;;;;;;2.77;1.27;;;8.50;98.90;;;;;;5081287;28;20173;-91
2023/06/03 01:30:14;;;;;;;4.15;1.67;;;8.40;98.70;;;;;;5081013;28;20724;-90
2023/06/03 01:32:42;;;;;;;4.30;1.20;;;8.40;98.40;;;;;;5079925;28;20177;-92
2023/06/03 01:35:10;;;;;;;1.98;1.33;;;8.40;98.30;;;;;;5081239;28;20173;-91
2023/06/03 01:37:37;;;;;;;2.55;1.10;;;8.40;98.30;;;;;;5080611;28;20170;-91
2023/06/03 01:40:05;;;;;;;2.20;1.27;;;8.40;98.60;;;;;;5080262;28;20546;-93
2023/06/03 01:42:31;;;;;;;3.43;1.00;;;8.40;98.40;;;;;;5080095;28;20231;-91
2023/06/03 01:44:58;;;;;;;3.77;1.00;;;8.30;99.00;;;;;;5079652;28;20208;-91
2023/06/03 01:47:24;;;;;;;3.10;1.43;;;8.20;99.40;;;;;;5080199;28;20326;-91
2023/06/03 01:49:50;;;;;;;3.38;1.20;;;8.10;99.50;;;;;;5081294;28;20317;-91
2023/06/03 01:52:17;;;;;;;2.30;1.03;;;8.00;99.80;;;;;;5081230;28;20204;-91
2023/06/03 01:54:42;;;;;;;2.83;1.23;;;8.00;99.90;;;;;;5080452;28;20208;-91
2023/06/03 01:57:08;;;;;;;3.07;1.03;;;7.90;99.90;;;;;;5078723;28;20177;-90
2023/06/03 01:59:34;;;;;;;1.37;1.10;;;7.70;99.90;;;;;;5079867;28;20645;-91
2023/06/03 02:02:02;;;;;;;3.23;1.10;;;7.70;99.90;;;;;;5079045;28;20181;-90
2023/06/03 02:04:28;;;;;;;2.23;1.47;;;7.70;99.90;;;;;;5078623;28;20283;-92
2023/06/03 02:06:59;;;;;;;2.53;1.27;;;7.70;99.90;;;;;;5079905;28;20166;-91
2023/06/03 02:09:27;;;;;;;2.40;1.30;;;7.60;99.90;;;;;;5080304;28;20264;-91
2023/06/03 02:11:54;;;;;;;2.30;1.23;;;7.60;99.90;;;;;;5079613;28;20180;-91
2023/06/03 02:14:20;;;;;;;2.63;1.20;;;7.60;99.90;;;;;;5080017;28;20205;-92
2023/06/03 02:16:48;;;;;;;2.43;1.07;;;7.60;99.90;;;;;;5079502;28;20173;-90
2023/06/03 02:19:24;;;;;;;2.83;1.30;;;7.70;99.90;;;;;;5079339;28;20180;-94
2023/06/03 02:21:51;;;;;;;2.27;1.20;;;7.60;99.90;;;;;;5079657;28;20249;-92
2023/06/03 02:24:17;;;;;;;3.53;1.10;;;7.50;99.90;;;;;;5080207;28;20217;-91
2023/06/03 02:26:52;;;;;;;1.47;1.00;;;7.40;99.90;;;;;;5080298;28;20256;-91
2023/06/03 02:29:19;;;;;;;2.50;1.17;;;7.30;99.90;;;;;;5078650;28;20173;-91
2023/06/03 02:31:46;;;;;;;2.10;1.03;;;7.30;99.90;;;;;;5077992;28;20185;-91
2023/06/03 02:34:12;;;;;;;1.83;0.97;;;7.30;99.90;;;;;;5078572;28;20227;-92
2023/06/03 02:36:38;;;;;;;1.93;1.00;;;7.20;99.90;;;;;;5078679;28;20692;-92
2023/06/03 02:39:07;;;;;;;1.40;1.00;;;7.20;99.90;;;;;;5079121;28;20181;-90
2023/06/03 02:41:34;;;;;;;1.60;1.00;;;7.20;99.90;;;;;;5079002;28;20268;-92
2023/06/03 02:43:59;;;;;;;2.23;1.03;;;7.00;99.90;;;;;;5079015;28;20226;-92
2023/06/03 02:46:25;;;;;;;4.60;1.10;;;6.90;99.90;;;;;;5079511;28;20174;-93
2023/06/03 02:48:52;;;;;;;2.83;1.10;;;7.00;99.90;;;;;;5079248;28;20276;-91
2023/06/03 02:51:17;;;;;;;1.53;1.00;;;7.00;99.90;;;;;;5079528;28;20227;-91
2023/06/03 02:53:44;;;;;;;2.47;0.90;;;7.00;99.90;;;;;;5080252;28;20208;-94
2023/06/03 02:56:10;;;;;;;3.50;1.20;;;6.80;99.90;;;;;;5079466;28;20188;-90
2023/06/03 02:58:36;;;;;;;4.27;1.00;;;6.80;99.90;;;;;;5079097;28;20169;-90
2023/06/03 03:01:02;;;;;;;2.97;1.03;;;6.80;99.90;;;;;;5079782;28;20170;-91
2023/06/03 03:03:28;;;;;;;1.77;1.17;;;6.80;99.90;;;;;;5078790;28;20680;-92
2023/06/03 03:05:54;;;;;;;2.33;1.00;;;6.80;99.90;;;;;;5078491;28;20169;-89
2023/06/03 03:08:24;;;;;;;2.50;1.10;;;6.80;99.90;;;;;;5078571;28;20173;-90
2023/06/03 03:10:49;;;;;;;1.20;0.90;;;6.80;99.90;;;;;;5078249;28;20169;-93
2023/06/03 03:13:15;;;;;;;1.97;0.90;;;6.90;99.90;;;;;;5078249;28;20259;-90
2023/06/03 03:15:41;;;;;;;2.20;1.03;;;6.90;99.90;;;;;;5078714;28;20181;-90
2023/06/03 03:18:07;;;;;;;1.40;0.90;;;6.90;99.90;;;;;;5078255;28;20173;-89
2023/06/03 03:20:33;;;;;;;3.57;1.10;;;6.80;99.90;;;;;;5077218;28;20191;-91
2023/06/03 03:22:59;;;;;;;4.13;0.90;;;6.70;99.90;;;;;;5077728;28;20656;-91
2023/06/03 03:25:26;;;;;;;2.73;0.93;;;6.60;99.90;;;;;;5078129;28;20215;-91
2023/06/03 03:27:53;;;;;;;1.30;0.90;;;6.60;99.90;;;;;;5078875;28;20165;-92
2023/06/03 03:30:20;;;;;;;1.60;0.90;;;6.70;99.90;;;;;;5078531;28;20165;-93
2023/06/03 03:32:48;;;;;;;1.43;0.80;;;6.60;99.90;;;;;;5078578;28;20697;-92
2023/06/03 03:35:17;;;;;;;1.07;0.90;;;6.60;99.90;;;;;;5077939;28;20180;-91
2023/06/03 03:37:44;;;;;;;3.50;1.00;;;6.50;99.90;;;;;;5077980;28;20208;-91
2023/06/03 03:40:21;;;;;;;3.10;0.90;;;6.40;99.90;;;;;;5077770;28;20609;-92
2023/06/03 03:42:55;;;;;;;3.07;1.00;;;6.30;99.90;;;;;;5077803;28;20200;-92
2023/06/03 03:45:25;;;;;;;4.93;1.10;;;6.30;99.90;;;;;;5077783;28;20173;-91
2023/06/03 03:47:52;;;;;;;1.97;1.20;;;6.30;99.90;;;;;;5078424;28;20633;-91
2023/06/03 03:50:47;;;;;;;1.20;0.90;;;6.20;99.90;;;;;;5077026;28;20181;-90
2023/06/03 03:53:18;;;;;;;4.90;1.10;;;6.40;99.90;;;;;;5077837;28;20200;-90
2023/06/03 03:55:46;;;;;;;2.63;1.13;;;6.60;99.90;;;;;;5077221;28;20169;-90
2023/06/03 03:58:30;;;;;;;3.97;0.90;;;6.70;99.90;;;;;;5077500;28;20173;-90
2023/06/03 04:00:59;;;;;;;2.73;1.10;;;6.80;99.90;;;;;;5078108;28;20165;-91
2023/06/03 04:03:26;;;;;;;2.47;0.93;;;6.80;99.90;;;;;;5078209;28;20221;-91
2023/06/03 04:05:54;;;;;;;1.30;1.00;;;6.90;99.90;;;;;;5077594;28;20239;-91
2023/06/03 04:08:45;;;;;;;1.37;0.97;;;7.00;99.90;;;;;;5077849;28;20728;-92
2023/06/03 04:11:20;;;;;;;1.37;0.87;;;7.00;99.90;;;;;;5078590;28;20169;-91
2023/06/03 04:13:48;;;;;;;2.20;0.90;;;7.10;99.90;;;;;;5077399;28;20232;-90
2023/06/03 04:16:38;;;;;;;3.27;1.17;;;7.20;99.90;;;;;;5077312;28;20548;-90
2023/06/03 04:19:11;;;;;;;3.13;1.17;;;7.20;99.90;;;;;;5063732;28;20193;-91
2023/06/03 04:21:38;;;;;;;2.53;1.00;;;7.30;99.90;;;;;;5076809;28;20177;-91
2023/06/03 04:24:08;;;;;;;2.93;1.20;;;7.40;99.90;;;;;;5076629;28;20215;-91
2023/06/03 04:26:36;;;;;;;1.27;0.90;;;7.40;99.90;;;;;;5077653;28;20193;-92
2023/06/03 04:29:03;;;;;;;2.90;1.73;;;7.50;99.90;;;;;;5076480;28;20177;-91
2023/06/03 04:31:28;;;;;;;2.63;1.40;;;7.50;99.90;;;;;;5076643;28;20177;-91
2023/06/03 04:33:54;;;;;;;1.73;1.00;;;7.40;99.90;;;;;;5076943;28;20848;-91
2023/06/03 04:36:21;;;;;;;1.37;1.07;;;7.60;99.90;;;;;;5077044;28;20193;-91
2023/06/03 04:38:47;;;;;;;1.70;1.00;;;7.60;99.90;;;;;;5075584;28;20177;-90
2023/06/03 04:41:15;;;;;;;3.27;1.30;;;7.70;99.90;;;;;;5076574;28;20763;-89
2023/06/03 04:43:45;;;;;;;3.47;1.10;;;7.80;99.90;;;;;;5060591;28;20222;-92
2023/06/03 04:46:11;;;;;;;7.60;1.00;;;8.10;99.90;;;;;;5056134;28;20264;-90
2023/06/03 04:48:41;;;;;;;3.70;1.20;;;8.30;99.90;;;;;;5056716;28;20643;-92
2023/06/03 04:51:07;;;;;;;5.70;1.17;;;8.50;99.90;;;;;;5057055;28;20181;-92
2023/06/03 04:53:36;;;;;;;1.60;0.97;;;8.60;99.90;;;;;;5056556;28;20205;-90
2023/06/03 04:56:03;;;;;;;6.10;1.00;;;8.70;99.90;;;;;;5056225;28;20593;-90
2023/06/03 04:58:30;;;;;;;3.00;1.10;;;8.70;99.90;;;;;;5055684;28;20178;-90
2023/06/03 05:00:56;;;;;;;2.30;1.03;;;8.90;99.90;;;;;;5058289;28;20166;-92
2023/06/03 05:03:22;;;;;;;2.80;1.10;;;8.90;99.90;;;;;;5056282;28;20263;-89
2023/06/03 05:05:49;;;;;;;5.67;1.10;;;9.00;99.90;;;;;;5056638;28;20178;-91
2023/06/03 05:08:15;;;;;;;1.87;1.03;;;9.00;99.90;;;;;;5056266;28;20181;-92
2023/06/03 05:10:41;;;;;;;1.37;0.97;;;9.10;99.90;;;;;;5070803;28;20187;-91
2023/06/03 05:13:07;;;;;;;3.30;0.80;;;9.10;99.90;;;;;;5035440;28;1194132;-93
2023/06/03 05:15:37;;;;;;;0.90;0.80;;;9.20;99.90;;;;;;5078287;28;20187;-91
2023/06/03 05:18:05;;;;;;;2.17;0.90;;;9.20;99.90;;;;;;5076946;28;20176;-93
2023/06/03 05:20:32;;;;;;;3.10;1.00;;;9.30;99.90;;;;;;5078597;28;20204;-93
2023/06/03 05:22:58;;;;;;;2.13;1.00;;;9.50;99.90;;;;;;5062781;28;20204;-92
2023/06/03 05:25:24;;;;;;;2.35;1.10;;;9.50;99.90;;;;;;5078733;28;20201;-91
2023/06/03 05:27:54;;;;;;;6.78;1.10;;;9.50;99.90;;;;;;5078878;28;20652;-92
2023/06/03 05:30:20;;;;;;;1.40;1.10;;;9.60;99.90;;;;;;5079019;28;20256;-92
2023/06/03 05:32:46;;;;;;;1.52;1.13;;;9.60;99.90;;;;;;5078702;28;20197;-91
2023/06/03 05:35:12;;;;;;;2.13;1.10;;;9.60;99.90;;;;;;5079127;28;20169;-93
2023/06/03 05:37:41;;;;;;;1.55;1.10;;;9.60;99.90;;;;;;5078652;28;20168;-91
2023/06/03 05:40:08;;;;;;;1.65;1.00;;;9.60;99.90;;;;;;5078445;28;20177;-92
2023/06/03 05:42:35;;;;;;;2.47;0.80;;;9.70;99.90;;;;;;5078283;28;20249;-92
2023/06/03 05:45:03;;;;;;;1.80;1.00;;;9.80;99.90;;;;;;5077084;28;20189;-92
2023/06/03 05:47:29;;;;;;;3.85;1.10;;;9.80;99.90;;;;;;5077790;28;20264;-92
2023/06/03 05:49:55;;;;;;;2.42;1.08;;;9.80;99.90;;;;;;5077814;28;20166;-93
2023/06/03 05:52:21;;;;;;;3.28;1.02;;;9.90;99.90;;;;;;5077622;28;20643;-92
2023/06/03 05:54:47;;;;;;;3.90;1.13;;;9.90;99.90;;;;;;5078099;28;20232;-93
2023/06/03 05:57:13;;;;;;;6.10;1.00;;;10.00;99.90;;;;;;5077274;28;20238;-92
2023/06/03 05:59:38;;;;;;;4.07;1.10;;;10.00;99.90;;;;;;5079252;28;20161;-92
2023/06/03 06:02:06;;;;;;;2.33;1.00;;;10.10;99.90;;;;;;5081213;28;20198;-92
2023/06/03 06:04:33;;;;;;;1.85;1.00;;;10.30;99.90;;;;;;5081603;28;20189;-92
2023/06/03 06:06:59;;;;;;;1.33;0.93;;;10.30;99.90;;;;;;5081674;28;20173;-91
2023/06/03 06:09:25;;;;;;;1.95;1.10;;;10.50;99.90;;;;;;5080776;28;20658;-93
2023/06/03 06:11:51;;;;;;;4.15;1.52;;;10.60;99.90;;;;;;5080570;28;20260;-91
2023/06/03 06:14:17;;;;;;;1.75;1.20;;;10.70;99.90;;;;;;5081067;28;20742;-93
2023/06/03 06:16:43;;;;;;;4.07;1.10;;;10.90;99.90;;;;;;5081489;28;20165;-92
2023/06/03 06:19:09;;;;;;;1.75;1.00;;;11.00;99.90;;;;;;5081651;28;20174;-92
2023/06/03 06:21:37;;;;;;;2.90;1.10;;;11.20;99.40;;;;;;5081231;28;20173;-92
2023/06/03 06:24:03;;;;;;;2.97;1.10;;;11.30;99.90;;;;;;5081228;28;20201;-92
2023/06/03 06:26:29;;;;;;;3.50;1.15;;;11.50;99.50;;;;;;5080959;28;20621;-92
2023/06/03 06:28:55;;;;;;;2.67;1.30;;;11.60;99.90;;;;;;5080891;28;20187;-92
2023/06/03 06:31:21;;;;;;;5.18;1.30;;;11.70;99.00;;;;;;5080435;28;20192;-93
2023/06/03 06:33:49;;;;;;;6.38;1.30;;;11.80;96.90;;;;;;5081178;28;20235;-92
2023/06/03 06:36:38;;;;;;;1.75;1.00;;;11.90;96.60;;;;;;5081308;28;20231;-91
2023/06/03 06:39:20;;;;;;;2.05;0.98;;;12.00;95.80;;;;;;5080145;28;20209;-90
2023/06/03 06:41:46;;;;;;;1.75;1.00;;;12.10;96.10;;;;;;5073927;28;20169;-92
2023/06/03 06:44:12;;;;;;;3.17;1.20;;;12.30;95.30;;;;;;5073498;28;20714;-91
2023/06/03 06:46:39;;;;;;;4.82;1.60;;;12.30;95.50;;;;;;5073160;28;20200;-91
2023/06/03 06:49:06;;;;;;;3.42;1.15;;;12.40;94.60;;;;;;5073606;28;20177;-93
2023/06/03 06:51:33;;;;;;;3.42;1.13;;;12.50;94.80;;;;;;5073076;28;20256;-91
2023/06/03 06:53:59;;;;;;;2.35;1.17;;;12.70;94.60;;;;;;5073305;28;20232;-92
2023/06/03 06:56:25;;;;;;;2.92;0.88;;;12.70;94.10;;;;;;5073652;28;20284;-93
2023/06/03 06:58:51;;;;;;;1.80;1.13;;;12.80;93.70;;;;;;5073480;28;20641;-93
2023/06/03 07:01:17;;;;;;;1.88;1.00;;;13.00;93.80;;;;;;5073211;28;20184;-92
2023/06/03 07:03:43;;;;;;;1.95;0.93;;;13.20;93.50;;;;;;5072747;28;20212;-92
2023/06/03 07:06:08;;;;;;;3.65;1.00;;;13.30;93.30;;;;;;5072531;28;20170;-93
2023/06/03 07:08:34;;;;;;;2.15;1.10;;;13.50;92.70;;;;;;5072906;28;20169;-92
2023/06/03 07:11:04;;;;;;;3.88;1.00;;;13.60;92.40;;;;;;5072538;28;20212;-92
2023/06/03 07:13:30;;;;;;;1.98;1.00;;;13.80;92.70;;;;;;5071702;28;20240;-92
2023/06/03 07:15:56;;;;;;;3.00;0.90;;;14.00;92.70;;;;;;5072547;28;20176;-92
2023/06/03 07:18:22;;;;;;;4.80;1.10;;;14.30;93.40;;;;;;5072551;28;20177;-92
2023/06/03 07:20:48;;;;;;;2.65;1.00;;;14.50;92.60;;;;;;5072996;28;20254;-93
2023/06/03 07:23:35;;;;;;;1.55;0.93;;;14.60;91.30;;;;;;5072386;28;20718;-91
2023/06/03 07:26:00;;;;;;;1.90;0.90;;;14.70;91.60;;;;;;5072487;28;20177;-92
2023/06/03 07:28:30;;;;;;;1.40;0.90;;;14.90;91.20;;;;;;5072193;28;20154;-91
2023/06/03 07:30:58;;;;;;;1.50;0.75;;;14.90;90.80;;;;;;5054422;28;20158;-92
2023/06/03 07:33:36;;;;;;;1.88;1.00;;;14.90;90.80;;;;;;5052871;28;20205;-92
2023/06/03 07:36:03;;;;;;;4.53;0.98;;;15.00;91.10;;;;;;5052599;28;20197;-91
2023/06/03 07:38:38;;;;;;;2.70;0.80;;;14.90;90.30;;;;;;5069123;28;20184;-92
2023/06/03 07:41:06;;;;;;;2.30;0.90;;;15.10;91.20;;;;;;5062386;28;20169;-91
2023/06/03 07:43:33;;;;;;;2.30;0.85;;;15.10;90.00;;;;;;5072988;28;20201;-90
2023/06/03 07:46:08;;;;;;;2.67;0.85;;;15.20;90.10;;;;;;5074482;28;20184;-92
2023/06/03 07:48:39;;;;;;;4.75;0.88;;;15.30;89.80;;;;;;5053198;28;20178;-93
2023/06/03 07:51:06;;;;;;;3.58;0.63;;;15.40;88.80;;;;;;5073225;28;20227;-94
2023/06/03 07:53:36;;;;;;;1.83;0.85;;;15.40;88.70;;;;;;5071767;28;20207;-93
2023/06/03 07:56:12;;;;;;;3.78;0.90;;;15.60;88.70;;;;;;5076182;28;20648;-93
2023/06/03 07:58:38;;;;;;;4.80;0.70;;;15.80;87.40;;;;;;5073070;28;20169;-93
2023/06/03 08:01:05;;;;;;;3.50;0.80;;;15.80;85.80;;;;;;5074166;28;20162;-92
2023/06/03 08:03:33;;;;;;;2.97;0.90;;;15.80;84.80;;;;;;5071360;28;20220;-91
2023/06/03 08:05:59;;;;;;;1.65;0.63;;;15.80;85.60;;;;;;5071582;28;20205;-90
2023/06/03 08:08:32;;;;;;;2.13;0.60;;;16.10;84.50;;;;;;5071442;28;20207;-93
2023/06/03 08:11:00;;;;;;;1.48;0.70;;;16.10;83.30;;;;;;5071495;28;20183;-91
2023/06/03 08:13:25;;;;;;;2.30;0.80;;;16.30;82.30;;;;;;5070720;28;20236;-91
2023/06/03 08:15:51;;;;;;;2.20;0.70;;;16.40;83.80;;;;;;5071625;28;20165;-91
2023/06/03 08:18:47;;;;;;;1.73;0.70;;;16.30;82.10;;;;;;5070793;28;20204;-90
2023/06/03 08:21:14;;;;;;;2.47;0.73;;;16.30;79.10;;;;;;5070631;28;20165;-91
2023/06/03 08:23:40;;;;;;;4.15;0.77;;;16.50;82.50;;;;;;5070752;28;20634;-90
2023/06/03 08:26:08;;;;;;;2.00;0.70;;;16.70;80.00;;;;;;5071403;28;20165;-91
2023/06/03 08:28:38;;;;;;;2.28;0.95;;;16.70;80.50;;;;;;5072639;28;20513;-92
2023/06/03 08:31:04;;;;;;;1.67;0.70;;;16.70;79.10;;;;;;5072186;28;20234;-91
2023/06/03 08:33:30;;;;;;;2.80;0.75;;;16.80;79.50;;;;;;5071085;28;20216;-91
2023/06/03 08:35:56;;;;;;;0.60;0.50;;;16.90;80.50;;;;;;5071555;28;20177;-91
2023/06/03 08:38:24;;;;;;;2.13;0.90;;;17.00;77.80;;;;;;5070840;28;20279;-93
2023/06/03 08:40:50;;;;;;;1.67;0.80;;;16.90;77.60;;;;;;5070715;28;20180;-93
2023/06/03 08:43:17;;;;;;;2.22;0.88;;;16.90;77.50;;;;;;5071906;28;20254;-92
2023/06/03 08:46:23;;;;;;;1.63;0.73;;;16.90;76.20;;;;;;5072740;28;20629;-92
2023/06/03 08:49:03;;;;;;;2.03;0.82;;;17.10;79.20;;;;;;5071437;28;20173;-90
2023/06/03 08:51:36;;;;;;;4.65;0.80;;;17.10;75.70;;;;;;5070552;28;20215;-92
2023/06/03 08:54:08;;;;;;;0.63;0.50;;;17.30;74.90;;;;;;5071113;28;20204;-91
2023/06/03 08:56:41;;;;;;;0.90;0.52;;;17.40;75.70;;;;;;5072019;28;20177;-94
2023/06/03 08:59:11;;;;;;;0.70;0.40;;;17.50;77.00;;;;;;5073257;28;20169;-92
2023/06/03 09:01:37;;;;;;;1.20;0.60;;;17.60;74.50;;;;;;5073118;28;20192;-95
2023/06/03 09:04:04;;;;;;;1.15;0.63;;;17.60;74.30;;;;;;5071851;28;20216;-93
2023/06/03 09:06:42;;;;;;;0.65;0.50;;;17.60;73.00;;;;;;5071976;28;20553;-91
2023/06/03 09:09:11;;;;;;;1.27;0.50;;;17.60;73.90;;;;;;5051814;28;20568;-94
2023/06/03 09:11:39;;;;;;;1.52;0.57;;;17.80;73.60;;;;;;5052008;28;20166;-94
2023/06/03 09:14:05;;;;;;;3.03;0.60;;;17.70;71.60;;;;;;5050885;28;20241;-91
2023/06/03 09:16:36;;;;;;;1.02;0.50;;;17.80;73.10;;;;;;5051198;28;20174;-91
2023/06/03 09:19:03;;;;;;;1.85;0.50;;;17.90;74.20;;;;;;5051006;28;20188;-96
2023/06/03 09:21:29;;;;;;;1.30;0.60;;;18.00;69.40;;;;;;5052173;28;20174;-91
2023/06/03 09:23:55;;;;;;;1.80;0.60;;;18.00;72.40;;;;;;5062794;28;20223;-92
2023/06/03 09:26:21;;;;;;;1.63;0.60;;;18.20;70.70;;;;;;5071002;28;20169;-92
2023/06/03 09:28:47;;;;;;;0.93;0.60;;;18.20;72.10;;;;;;5071128;28;20180;-92
2023/06/03 09:31:13;;;;;;;0.63;0.50;;;18.30;72.90;;;;;;5070967;28;20256;-92
2023/06/03 09:33:41;;;;;;;2.85;0.45;;;18.40;73.00;;;;;;5071362;28;20288;-93
2023/06/03 09:36:15;;;;;;;2.97;0.55;;;18.50;70.40;;;;;;5073245;28;20698;-94
2023/06/03 09:38:49;;;;;;;0.98;0.57;;;18.50;69.60;;;;;;5075247;28;20606;-90
2023/06/03 09:41:17;;;;;;;0.70;0.50;;;18.40;68.00;;;;;;5075936;28;20698;-91
2023/06/03 09:44:01;;;;;;;0.95;0.60;;;18.30;68.20;;;;;;5074900;28;20220;-93
2023/06/03 09:46:34;;;;;;;1.20;0.60;;;18.40;69.20;;;;;;5074048;28;20173;-92
2023/06/03 09:49:11;;;;;;;1.73;0.70;;;18.40;67.00;;;;;;5074819;28;20170;-91
2023/06/03 09:51:45;;;;;;;2.28;0.60;;;18.70;69.80;;;;;;5074267;28;20168;-92
2023/06/03 09:54:15;;;;;;;1.75;0.50;;;18.70;68.90;;;;;;5073875;28;20673;-91
2023/06/03 09:56:43;;;;;;;0.70;0.50;;;18.80;67.40;;;;;;5074658;28;20643;-92
2023/06/03 09:59:17;;;;;;;0.77;0.63;;;18.90;68.70;;;;;;5074369;28;20209;-91
2023/06/03 10:01:47;;;;;;;0.73;0.68;;;19.00;67.80;;;;;;5074574;28;20528;-90
2023/06/03 10:04:36;;;;;;;0.73;0.45;;;19.00;66.60;;;;;;5074336;28;20216;-91
2023/06/03 10:07:16;;;;;;;1.20;0.60;;;19.10;66.80;;;;;;5074171;28;20192;-90
2023/06/03 10:09:46;;;;;;;0.60;0.40;;;19.20;67.50;;;;;;5073894;28;20173;-91
2023/06/03 10:12:14;;;;;;;0.60;0.50;;;19.20;67.60;;;;;;5074142;28;20232;-92
2023/06/03 10:14:48;;;;;;;1.02;0.60;;;19.20;66.30;;;;;;5074034;28;20220;-90
2023/06/03 10:17:18;;;;;;;2.25;0.70;;;18.90;67.00;;;;;;5073498;28;20177;-91
2023/06/03 10:19:45;;;;;;;1.48;0.70;;;18.70;70.20;;;;;;5073403;28;20165;-92
2023/06/03 10:22:16;;;;;;;2.05;0.60;;;18.80;67.60;;;;;;5073873;28;20166;-91
2023/06/03 10:24:44;;;;;;;0.80;0.50;;;18.80;67.70;;;;;;5073958;28;20212;-91
2023/06/03 10:27:11;;;;;;;1.70;0.50;;;19.10;65.70;;;;;;5073530;28;20180;-91
2023/06/03 10:29:38;;;;;;;1.67;0.60;;;19.10;66.50;;;;;;5072922;28;20188;-92
2023/06/03 10:32:06;;;;;;;2.78;0.73;;;19.20;68.90;;;;;;5074480;28;20161;-90
2023/06/03 10:34:37;;;;;;;1.30;0.70;;;19.20;68.00;;;;;;5074398;28;20203;-93
2023/06/03 10:37:04;;;;;;;2.03;0.50;;;19.30;68.90;;;;;;5073910;28;20187;-90
2023/06/03 10:39:32;;;;;;;1.48;0.60;;;19.30;68.00;;;;;;5073465;28;20261;-91
2023/06/03 10:42:06;;;;;;;0.85;0.70;;;19.40;67.80;;;;;;5075068;28;20256;-91
2023/06/03 10:44:33;;;;;;;0.77;0.60;;;19.50;68.70;;;;;;5073079;28;20208;-93
2023/06/03 10:47:01;;;;;;;0.82;0.50;;;19.50;69.10;;;;;;5072576;28;20177;-92
2023/06/03 10:49:58;;;;;;;1.13;0.50;;;19.80;66.40;;;;;;5073457;28;20213;-89
2023/06/03 10:53:00;;;;;;;0.55;0.43;;;19.80;64.60;;;;;;5050611;28;20209;-93
2023/06/03 10:55:51;;;;;;;1.48;0.60;;;19.90;64.00;;;;;;5062836;28;20181;-92
2023/06/03 10:58:25;;;;;;;1.30;0.55;;;20.00;67.30;;;;;;5073069;28;20189;-90
2023/06/03 11:00:58;;;;;;;2.25;0.63;;;20.10;65.40;;;;;;5073227;28;20184;-91
2023/06/03 11:03:26;;;;;;;0.80;0.57;;;20.40;63.90;;;;;;5073732;28;20216;-92
2023/06/03 11:05:53;;;;;;;0.80;0.50;;;20.40;65.40;;;;;;5073101;28;20181;-90
2023/06/03 11:08:57;;;;;;;0.93;0.82;;;20.50;62.30;;;;;;5072763;28;20219;-93
2023/06/03 11:11:41;;;;;;;4.05;0.60;;;20.30;61.40;;;;;;5073240;28;20173;-89
2023/06/03 11:14:11;;;;;;;1.55;0.43;;;20.50;64.00;;;;;;5072676;28;20232;-92
2023/06/03 11:16:55;;;;;;;0.93;0.50;;;20.50;63.20;;;;;;5072802;28;20280;-92
2023/06/03 11:19:37;;;;;;;0.85;0.60;;;20.60;61.40;;;;;;5066828;28;20192;-92
2023/06/03 11:22:04;;;;;;;3.10;0.60;;;20.50;60.80;;;;;;5062192;28;20211;-91
2023/06/03 11:24:42;;;;;;;0.93;0.60;;;20.20;61.50;;;;;;5071069;28;20213;-93
2023/06/03 11:27:14;;;;;;;1.75;0.70;;;20.30;64.50;;;;;;5066728;28;20198;-92
2023/06/03 11:29:46;;;;;;;1.70;0.68;;;20.30;61.90;;;;;;5070541;28;20682;-90
2023/06/03 11:32:35;;;;;;;0.57;0.47;;;20.50;65.00;;;;;;5071059;28;20177;-89
2023/06/03 11:35:04;;;;;;;1.45;0.60;;;20.40;61.80;;;;;;5071475;28;20229;-91
2023/06/03 11:37:48;;;;;;;0.95;0.60;;;20.50;60.40;;;;;;5071935;28;20680;-90
2023/06/03 11:40:17;;;;;;;1.73;0.70;;;20.50;61.60;;;;;;5070866;28;20181;-91
2023/06/03 11:42:49;;;;;;;2.17;0.60;;;20.50;62.90;;;;;;5071487;28;20207;-90
2023/06/03 11:45:28;;;;;;;2.08;0.70;;;20.40;59.90;;;;;;5066787;28;20267;-92
2023/06/03 11:48:07;;;;;;;0.68;0.50;;;20.60;63.00;;;;;;5072126;28;20271;-91
2023/06/03 11:50:54;;;;;;;0.77;0.60;;;20.80;61.70;;;;;;5072452;28;20541;-92
2023/06/03 11:53:41;;;;;;;1.80;0.80;;;21.00;61.00;;;;;;5072401;28;20685;-91
2023/06/03 11:56:12;;;;;;;1.13;0.60;;;21.00;63.10;;;;;;5070757;28;20181;-89
2023/06/03 11:58:42;;;;;;;1.55;0.70;;;21.10;61.60;;;;;;5071015;28;20185;-94
2023/06/03 12:01:17;;;;;;;1.15;0.60;;;21.30;63.40;;;;;;5071148;28;20212;-92
2023/06/03 12:04:00;;;;;;;1.33;0.70;;;21.50;63.30;;;;;;5071363;28;20307;-95
2023/06/03 12:06:33;;;;;;;0.70;0.60;;;21.60;60.10;;;;;;5071731;28;20254;-91
2023/06/03 12:08:58;;;;;;;0.82;0.60;;;21.40;63.00;;;;;;5072068;28;20177;-90
2023/06/03 12:11:27;;;;;;;3.03;0.80;;;21.20;61.10;;;;;;5072722;28;20200;-91
2023/06/03 12:13:55;;;;;;;3.63;0.70;;;20.90;59.80;;;;;;5071681;28;20715;-90
2023/06/03 12:16:34;;;;;;;1.88;0.68;;;21.10;60.30;;;;;;5070452;28;20192;-91
2023/06/03 12:19:02;;;;;;;0.93;0.70;;;21.10;62.50;;;;;;5070841;28;20208;-88
2023/06/03 12:21:30;;;;;;;0.95;0.50;;;21.10;59.80;;;;;;5070540;28;20644;-90
2023/06/03 12:23:56;;;;;;;1.25;0.50;;;21.30;61.10;;;;;;5071094;28;20224;-89
2023/06/03 12:26:26;;;;;;;1.00;0.70;;;21.10;57.90;;;;;;5071528;28;20169;-92
2023/06/03 12:28:54;;;;;;;3.45;0.68;;;21.30;62.60;;;;;;5071675;28;20193;-92
2023/06/03 12:31:28;;;;;;;1.83;0.70;;;21.50;61.40;;;;;;5071619;28;20253;-92
2023/06/03 12:33:54;;;;;;;1.10;0.68;;;21.40;60.20;;;;;;5071433;28;20699;-91
2023/06/03 12:36:22;;;;;;;0.70;0.43;;;21.20;59.00;;;;;;5071074;28;20181;-90
2023/06/03 12:38:59;;;;;;;0.70;0.60;;;21.20;59.30;;;;;;5071025;28;20180;-89
2023/06/03 12:41:29;;;;;;;1.80;0.65;;;21.20;63.70;;;;;;5070906;28;20180;-89
2023/06/03 12:44:03;;;;;;;2.33;0.73;;;21.30;62.80;;;;;;5069767;28;20355;-92
2023/06/03 12:46:30;;;;;;;0.95;0.60;;;21.20;60.00;;;;;;5067660;28;20173;-91
2023/06/03 12:48:58;;;;;;;0.93;0.60;;;21.20;58.90;;;;;;5052759;28;20241;-93
2023/06/03 12:51:29;;;;;;;0.52;0.52;;;21.00;59.80;;;;;;5053370;28;20154;-90
2023/06/03 12:53:56;;;;;;;1.13;0.70;;;21.10;63.70;;;;;;5067486;28;20631;-93
2023/06/03 12:56:26;;;;;;;2.75;0.45;;;21.20;60.50;;;;;;5068704;28;20172;-92
2023/06/03 12:58:53;;;;;;;2.55;0.60;;;21.40;60.50;;;;;;5069128;28;20165;-91
2023/06/03 13:01:22;;;;;;;1.70;0.60;;;21.50;59.40;;;;;;5070207;28;20204;-91
2023/06/03 13:03:49;;;;;;;2.15;0.55;;;21.50;59.90;;;;;;5070778;28;20227;-93